• Join FlightAware (Why Join?)
  • Login
  • US Flag 
Gobble Gobble! 
03:07PM EST


 

Airport Tracker/Info


-or-


 

Live Flight TrackerFlight Track Log ✈ LV-CSD ✈ 07-Jul-2013 ✈ SAEZ / EZE - KMIA

Flight Track Log - Related Links

Times and Time Zones

All times are in EDT time to prevent confusion due to time zone crossing. See the LV-CSD flight status page for this flight to view local times or setup timezone preferences in your user account.

Time Position Orientation Groundspeed Altitude Reporting Facility
EDT Latitude Longitude Course Direction KTS MPH feet Rate Location/Type
04:02PM -33.4280 -59.1965 338° Northwest  Level Estimated
04:03PM -33.3075 -59.2531 339° North  Level Estimated
04:04PM -33.1870 -59.3095 339° North  Level Estimated
04:05PM -33.0616 -59.3680 339° North  Level Estimated
04:06PM -32.9410 -59.4241 340° North  Level Estimated
04:07PM -32.8195 -59.4771 340° North  Level FlightAware Approximate
04:08PM -32.6980 -59.5300 340° North  Level FlightAware Approximate
04:09PM -32.5764 -59.5828 340° North  Level FlightAware Approximate
04:10PM -32.4549 -59.6354 340° North  Level FlightAware Approximate
04:11PM -32.3333 -59.6879 340° North  Level FlightAware Approximate
04:12PM -32.2117 -59.7402 340° North  Level FlightAware Approximate
04:13PM -32.0901 -59.7924 340° North  Level FlightAware Approximate
04:14PM -31.9684 -59.8444 340° North  Level FlightAware Approximate
04:15PM -31.8468 -59.8964 340° North  Level FlightAware Approximate
04:16PM -31.7251 -59.9481 340° North  Level FlightAware Approximate
04:17PM -31.6034 -59.9998 340° North  Level FlightAware Approximate
04:18PM -31.4817 -60.0513 340° North  Level FlightAware Approximate
04:19PM -31.3600 -60.1026 340° North  Level FlightAware Approximate
04:20PM -31.2382 -60.1539 340° North  Level FlightAware Approximate
04:21PM -31.1165 -60.2050 340° North  Level FlightAware Approximate
04:22PM -30.9947 -60.2559 340° North  Level FlightAware Approximate
04:23PM -30.8729 -60.3068 340° North  Level FlightAware Approximate
04:24PM -30.7510 -60.3575 340° North  Level FlightAware Approximate
04:25PM -30.6292 -60.4081 340° North  Level FlightAware Approximate
04:26PM -30.5073 -60.4585 340° North  Level FlightAware Approximate
04:27PM -30.3854 -60.5089 340° North  Level FlightAware Approximate
04:28PM -30.2635 -60.5591 340° North  Level FlightAware Approximate
04:29PM -30.1416 -60.6092 340° North  Level FlightAware Approximate
04:30PM -30.0196 -60.6591 340° North  Level FlightAware Approximate
04:31PM -29.8977 -60.7090 340° North  Level FlightAware Approximate
04:32PM -29.7757 -60.7587 341° North  Level FlightAware Approximate
04:33PM -29.6537 -60.8083 341° North  Level FlightAware Approximate
04:34PM -29.5316 -60.8577 341° North  Level FlightAware Approximate
04:35PM -29.4096 -60.9071 341° North  Level FlightAware Approximate
04:36PM -29.2875 -60.9563 341° North  Level FlightAware Approximate
04:37PM -29.1655 -61.0054 341° North  Level FlightAware Approximate
04:37PM 25.7817 -80.3569 90° East 120 138 800  Level Miami Center
04:38PM -29.0434 -61.0544 341° North  Level FlightAware Approximate
04:38PM 25.7847 -80.3181 85° East 124 143 100  Level Miami Center
04:39PM -28.9212 -61.1033 341° North  Level FlightAware Approximate
04:39PM 25.7870 -80.2890 341° North 29 33  Level FlightAware
04:40PM -28.7991 -61.1521 341° North  Level FlightAware Approximate
04:40PM 25.7833 -80.2833 90° East  Level FlightAware Approximate
04:40PM 25.7880 -80.2870 61° Northeast 25 29  Level FlightAware
04:40PM 25.7890 -80.2850 61° Northeast 2 2  Level FlightAware
04:43PM 25.7833 -80.2833 90° East  Level FlightAware Approximate